sensor_id;sensor_type;location;lat;lon;timestamp;P1;durP1;ratioP1;P2;durP2;ratioP2
53843;SDS011;39744;53.314;5.710;2022-09-09T00:04:16;26.83;;;11.10;;
53843;SDS011;39744;53.314;5.710;2022-09-09T00:09:19;40.38;;;13.60;;
53843;SDS011;39744;53.314;5.710;2022-09-09T00:11:54;29.13;;;12.75;;
53843;SDS011;39744;53.314;5.710;2022-09-09T00:14:25;29.10;;;13.35;;
53843;SDS011;39744;53.314;5.710;2022-09-09T00:16:54;26.02;;;12.68;;
53843;SDS011;39744;53.314;5.710;2022-09-09T00:19:26;33.55;;;13.55;;
53843;SDS011;39744;53.314;5.710;2022-09-09T00:22:04;37.42;;;14.48;;
53843;SDS011;39744;53.314;5.710;2022-09-09T00:24:33;35.47;;;13.55;;
53843;SDS011;39744;53.314;5.710;2022-09-09T00:27:08;27.30;;;12.73;;
53843;SDS011;39744;53.314;5.710;2022-09-09T00:29:45;29.55;;;13.90;;
53843;SDS011;39744;53.314;5.710;2022-09-09T00:32:14;36.58;;;14.90;;
53843;SDS011;39744;53.314;5.710;2022-09-09T00:34:47;34.97;;;15.35;;
53843;SDS011;39744;53.314;5.710;2022-09-09T00:37:15;33.42;;;13.57;;
53843;SDS011;39744;53.314;5.710;2022-09-09T00:39:42;36.33;;;15.30;;
53843;SDS011;39744;53.314;5.710;2022-09-09T00:42:25;34.88;;;14.20;;
53843;SDS011;39744;53.314;5.710;2022-09-09T00:50:10;39.20;;;14.77;;
53843;SDS011;39744;53.314;5.710;2022-09-09T00:52:43;38.20;;;14.98;;
53843;SDS011;39744;53.314;5.710;2022-09-09T00:58:13;29.60;;;14.32;;
53843;SDS011;39744;53.314;5.710;2022-09-09T01:00:52;30.98;;;13.52;;
53843;SDS011;39744;53.314;5.710;2022-09-09T01:03:32;25.85;;;13.48;;
53843;SDS011;39744;53.314;5.710;2022-09-09T01:08:51;28.00;;;13.90;;
53843;SDS011;39744;53.314;5.710;2022-09-09T01:11:22;34.75;;;13.73;;
53843;SDS011;39744;53.314;5.710;2022-09-09T01:13:53;38.05;;;14.68;;
53843;SDS011;39744;53.314;5.710;2022-09-09T01:16:23;37.75;;;15.15;;
53843;SDS011;39744;53.314;5.710;2022-09-09T01:18:51;38.47;;;14.98;;
53843;SDS011;39744;53.314;5.710;2022-09-09T01:26:18;42.58;;;15.95;;
53843;SDS011;39744;53.314;5.710;2022-09-09T01:28:48;35.70;;;15.30;;
53843;SDS011;39744;53.314;5.710;2022-09-09T01:31:27;41.00;;;16.13;;
53843;SDS011;39744;53.314;5.710;2022-09-09T01:33:54;37.00;;;14.60;;
53843;SDS011;39744;53.314;5.710;2022-09-09T01:38:56;39.38;;;14.57;;
53843;SDS011;39744;53.314;5.710;2022-09-09T01:41:22;52.03;;;16.45;;
53843;SDS011;39744;53.314;5.710;2022-09-09T01:43:48;35.20;;;14.52;;
53843;SDS011;39744;53.314;5.710;2022-09-09T01:46:14;33.30;;;14.57;;
53843;SDS011;39744;53.314;5.710;2022-09-09T01:48:40;43.42;;;15.13;;
53843;SDS011;39744;53.314;5.710;2022-09-09T01:51:08;28.90;;;14.20;;
53843;SDS011;39744;53.314;5.710;2022-09-09T01:53:35;37.55;;;15.45;;
53843;SDS011;39744;53.314;5.710;2022-09-09T01:56:04;37.85;;;14.80;;
53843;SDS011;39744;53.314;5.710;2022-09-09T01:58:53;30.65;;;12.88;;
53843;SDS011;39744;53.314;5.710;2022-09-09T02:03:40;28.70;;;14.40;;
53843;SDS011;39744;53.314;5.710;2022-09-09T02:06:14;31.08;;;14.85;;
53843;SDS011;39744;53.314;5.710;2022-09-09T02:08:47;37.22;;;14.55;;
53843;SDS011;39744;53.314;5.710;2022-09-09T02:11:15;41.42;;;15.55;;
53843;SDS011;39744;53.314;5.710;2022-09-09T02:13:42;32.40;;;13.70;;
53843;SDS011;39744;53.314;5.710;2022-09-09T02:21:11;49.57;;;17.77;;
53843;SDS011;39744;53.314;5.710;2022-09-09T02:23:37;35.20;;;14.75;;
53843;SDS011;39744;53.314;5.710;2022-09-09T02:26:04;37.72;;;14.88;;
53843;SDS011;39744;53.314;5.710;2022-09-09T02:28:32;32.80;;;14.95;;
53843;SDS011;39744;53.314;5.710;2022-09-09T02:30:59;41.78;;;16.08;;
53843;SDS011;39744;53.314;5.710;2022-09-09T02:33:27;46.72;;;15.80;;
53843;SDS011;39744;53.314;5.710;2022-09-09T02:35:54;55.85;;;17.95;;
53843;SDS011;39744;53.314;5.710;2022-09-09T02:38:26;46.45;;;16.95;;
53843;SDS011;39744;53.314;5.710;2022-09-09T02:40:54;53.47;;;18.20;;
53843;SDS011;39744;53.314;5.710;2022-09-09T02:43:20;53.35;;;17.30;;
53843;SDS011;39744;53.314;5.710;2022-09-09T02:51:15;55.50;;;19.90;;
53843;SDS011;39744;53.314;5.710;2022-09-09T02:53:48;46.53;;;16.90;;
53843;SDS011;39744;53.314;5.710;2022-09-09T02:56:16;47.45;;;17.27;;
53843;SDS011;39744;53.314;5.710;2022-09-09T02:58:43;40.63;;;18.08;;
53843;SDS011;39744;53.314;5.710;2022-09-09T03:01:09;40.83;;;17.02;;
53843;SDS011;39744;53.314;5.710;2022-09-09T03:03:36;41.20;;;17.38;;
53843;SDS011;39744;53.314;5.710;2022-09-09T03:06:02;32.10;;;14.05;;
53843;SDS011;39744;53.314;5.710;2022-09-09T03:08:28;45.22;;;16.65;;
53843;SDS011;39744;53.314;5.710;2022-09-09T03:10:54;37.30;;;15.05;;
53843;SDS011;39744;53.314;5.710;2022-09-09T03:13:24;41.50;;;15.85;;
53843;SDS011;39744;53.314;5.710;2022-09-09T03:15:50;44.47;;;17.17;;
53843;SDS011;39744;53.314;5.710;2022-09-09T03:18:16;42.22;;;17.13;;
53843;SDS011;39744;53.314;5.710;2022-09-09T03:20:42;47.38;;;18.00;;
53843;SDS011;39744;53.314;5.710;2022-09-09T03:23:09;36.60;;;16.25;;
53843;SDS011;39744;53.314;5.710;2022-09-09T03:25:35;48.03;;;17.85;;
53843;SDS011;39744;53.314;5.710;2022-09-09T03:28:01;51.17;;;18.25;;
53843;SDS011;39744;53.314;5.710;2022-09-09T03:30:27;40.35;;;17.65;;
53843;SDS011;39744;53.314;5.710;2022-09-09T03:32:53;42.63;;;17.45;;
53843;SDS011;39744;53.314;5.710;2022-09-09T03:35:23;70.30;;;21.25;;
53843;SDS011;39744;53.314;5.710;2022-09-09T03:37:49;40.38;;;16.48;;
53843;SDS011;39744;53.314;5.710;2022-09-09T03:40:15;38.35;;;16.35;;
53843;SDS011;39744;53.314;5.710;2022-09-09T03:42:41;34.53;;;16.38;;
53843;SDS011;39744;53.314;5.710;2022-09-09T03:45:08;42.25;;;17.65;;
53843;SDS011;39744;53.314;5.710;2022-09-09T03:47:35;54.20;;;17.60;;
53843;SDS011;39744;53.314;5.710;2022-09-09T03:50:02;37.28;;;15.40;;
53843;SDS011;39744;53.314;5.710;2022-09-09T03:52:29;39.08;;;16.05;;
53843;SDS011;39744;53.314;5.710;2022-09-09T03:54:55;36.20;;;15.07;;
53843;SDS011;39744;53.314;5.710;2022-09-09T03:57:21;37.50;;;15.15;;
53843;SDS011;39744;53.314;5.710;2022-09-09T03:59:47;36.22;;;14.52;;
53843;SDS011;39744;53.314;5.710;2022-09-09T04:02:13;35.95;;;15.07;;
53843;SDS011;39744;53.314;5.710;2022-09-09T04:04:40;37.72;;;15.30;;
53843;SDS011;39744;53.314;5.710;2022-09-09T04:07:06;36.88;;;15.90;;
53843;SDS011;39744;53.314;5.710;2022-09-09T04:09:32;35.95;;;15.38;;
53843;SDS011;39744;53.314;5.710;2022-09-09T04:11:59;37.85;;;14.75;;
53843;SDS011;39744;53.314;5.710;2022-09-09T04:14:25;59.15;;;17.85;;
53843;SDS011;39744;53.314;5.710;2022-09-09T04:16:53;37.58;;;15.70;;
53843;SDS011;39744;53.314;5.710;2022-09-09T04:19:21;44.58;;;16.25;;
53843;SDS011;39744;53.314;5.710;2022-09-09T04:21:47;33.60;;;15.32;;
53843;SDS011;39744;53.314;5.710;2022-09-09T04:24:16;39.50;;;15.43;;
53843;SDS011;39744;53.314;5.710;2022-09-09T04:26:42;42.97;;;16.95;;
53843;SDS011;39744;53.314;5.710;2022-09-09T04:29:10;58.30;;;19.10;;
53843;SDS011;39744;53.314;5.710;2022-09-09T04:31:36;43.47;;;15.85;;
53843;SDS011;39744;53.314;5.710;2022-09-09T04:34:06;63.78;;;18.05;;
53843;SDS011;39744;53.314;5.710;2022-09-09T04:36:32;43.67;;;15.60;;
53843;SDS011;39744;53.314;5.710;2022-09-09T04:38:59;51.00;;;16.55;;
53843;SDS011;39744;53.314;5.710;2022-09-09T04:41:26;41.28;;;14.60;;
53843;SDS011;39744;53.314;5.710;2022-09-09T04:43:52;52.28;;;16.85;;
53843;SDS011;39744;53.314;5.710;2022-09-09T04:46:19;70.45;;;19.20;;
53843;SDS011;39744;53.314;5.710;2022-09-09T04:48:45;42.80;;;14.50;;
53843;SDS011;39744;53.314;5.710;2022-09-09T04:51:13;41.38;;;15.55;;
53843;SDS011;39744;53.314;5.710;2022-09-09T04:53:39;33.55;;;14.38;;
53843;SDS011;39744;53.314;5.710;2022-09-09T04:56:06;53.25;;;15.05;;
53843;SDS011;39744;53.314;5.710;2022-09-09T04:58:35;45.47;;;14.25;;
53843;SDS011;39744;53.314;5.710;2022-09-09T05:03:30;34.15;;;13.15;;
53843;SDS011;39744;53.314;5.710;2022-09-09T05:06:06;38.40;;;14.23;;
53843;SDS011;39744;53.314;5.710;2022-09-09T05:08:33;37.88;;;13.43;;
53843;SDS011;39744;53.314;5.710;2022-09-09T05:10:59;37.90;;;14.40;;
53843;SDS011;39744;53.314;5.710;2022-09-09T05:13:28;30.58;;;12.20;;
53843;SDS011;39744;53.314;5.710;2022-09-09T05:15:56;33.63;;;11.82;;
53843;SDS011;39744;53.314;5.710;2022-09-09T05:18:22;35.15;;;12.68;;
53843;SDS011;39744;53.314;5.710;2022-09-09T05:20:49;37.88;;;12.25;;
53843;SDS011;39744;53.314;5.710;2022-09-09T05:23:16;41.60;;;13.90;;
53843;SDS011;39744;53.314;5.710;2022-09-09T05:25:42;33.97;;;13.02;;
53843;SDS011;39744;53.314;5.710;2022-09-09T05:28:08;44.05;;;13.77;;
53843;SDS011;39744;53.314;5.710;2022-09-09T05:30:36;44.90;;;14.57;;
53843;SDS011;39744;53.314;5.710;2022-09-09T05:33:02;41.45;;;13.50;;
53843;SDS011;39744;53.314;5.710;2022-09-09T05:35:28;29.77;;;12.75;;
53843;SDS011;39744;53.314;5.710;2022-09-09T05:37:58;47.05;;;13.63;;
53843;SDS011;39744;53.314;5.710;2022-09-09T05:40:25;36.85;;;11.75;;
53843;SDS011;39744;53.314;5.710;2022-09-09T05:42:51;42.30;;;13.45;;
53843;SDS011;39744;53.314;5.710;2022-09-09T05:45:18;43.45;;;13.20;;
53843;SDS011;39744;53.314;5.710;2022-09-09T05:47:44;35.15;;;13.20;;
53843;SDS011;39744;53.314;5.710;2022-09-09T05:50:10;36.90;;;12.88;;
53843;SDS011;39744;53.314;5.710;2022-09-09T05:52:37;45.75;;;13.00;;
53843;SDS011;39744;53.314;5.710;2022-09-09T05:55:03;44.95;;;13.40;;
53843;SDS011;39744;53.314;5.710;2022-09-09T05:57:30;46.83;;;12.95;;
53843;SDS011;39744;53.314;5.710;2022-09-09T05:59:56;46.70;;;13.98;;
53843;SDS011;39744;53.314;5.710;2022-09-09T06:02:21;35.60;;;12.40;;
53843;SDS011;39744;53.314;5.710;2022-09-09T06:04:47;37.65;;;12.93;;
53843;SDS011;39744;53.314;5.710;2022-09-09T06:07:13;66.00;;;15.35;;
53843;SDS011;39744;53.314;5.710;2022-09-09T06:09:39;43.80;;;14.27;;
53843;SDS011;39744;53.314;5.710;2022-09-09T06:12:06;44.83;;;14.02;;
53843;SDS011;39744;53.314;5.710;2022-09-09T06:14:32;37.97;;;13.73;;
53843;SDS011;39744;53.314;5.710;2022-09-09T06:16:58;44.42;;;15.10;;
53843;SDS011;39744;53.314;5.710;2022-09-09T06:19:24;59.38;;;15.20;;
53843;SDS011;39744;53.314;5.710;2022-09-09T06:21:51;44.10;;;15.43;;
53843;SDS011;39744;53.314;5.710;2022-09-09T06:24:17;50.65;;;16.55;;
53843;SDS011;39744;53.314;5.710;2022-09-09T06:26:45;49.67;;;16.38;;
53843;SDS011;39744;53.314;5.710;2022-09-09T06:29:11;56.97;;;17.23;;
53843;SDS011;39744;53.314;5.710;2022-09-09T06:31:37;47.50;;;16.67;;
53843;SDS011;39744;53.314;5.710;2022-09-09T06:34:07;56.40;;;18.48;;
53843;SDS011;39744;53.314;5.710;2022-09-09T06:36:37;65.97;;;19.52;;
53843;SDS011;39744;53.314;5.710;2022-09-09T06:39:04;45.13;;;16.88;;
53843;SDS011;39744;53.314;5.710;2022-09-09T06:41:30;52.05;;;17.35;;
53843;SDS011;39744;53.314;5.710;2022-09-09T06:43:56;58.50;;;17.50;;
53843;SDS011;39744;53.314;5.710;2022-09-09T06:46:23;57.50;;;19.15;;
53843;SDS011;39744;53.314;5.710;2022-09-09T06:51:22;55.90;;;19.15;;
53843;SDS011;39744;53.314;5.710;2022-09-09T06:53:56;39.20;;;16.48;;
53843;SDS011;39744;53.314;5.710;2022-09-09T06:58:48;45.00;;;16.52;;
53843;SDS011;39744;53.314;5.710;2022-09-09T07:01:18;41.05;;;16.52;;
53843;SDS011;39744;53.314;5.710;2022-09-09T07:03:46;49.65;;;15.70;;
53843;SDS011;39744;53.314;5.710;2022-09-09T07:06:17;35.33;;;14.80;;
53843;SDS011;39744;53.314;5.710;2022-09-09T07:08:43;32.10;;;14.05;;
53843;SDS011;39744;53.314;5.710;2022-09-09T07:11:10;34.67;;;14.45;;
53843;SDS011;39744;53.314;5.710;2022-09-09T07:13:36;36.55;;;13.40;;
53843;SDS011;39744;53.314;5.710;2022-09-09T07:16:06;36.33;;;14.52;;
53843;SDS011;39744;53.314;5.710;2022-09-09T07:18:32;38.85;;;14.73;;
53843;SDS011;39744;53.314;5.710;2022-09-09T07:20:59;36.42;;;16.30;;
53843;SDS011;39744;53.314;5.710;2022-09-09T07:23:27;32.25;;;13.63;;
53843;SDS011;39744;53.314;5.710;2022-09-09T07:25:53;44.58;;;15.40;;
53843;SDS011;39744;53.314;5.710;2022-09-09T07:28:19;42.53;;;15.43;;
53843;SDS011;39744;53.314;5.710;2022-09-09T07:30:53;47.15;;;16.50;;
53843;SDS011;39744;53.314;5.710;2022-09-09T07:33:19;32.00;;;14.73;;
53843;SDS011;39744;53.314;5.710;2022-09-09T07:35:45;35.30;;;14.88;;
53843;SDS011;39744;53.314;5.710;2022-09-09T07:38:11;27.73;;;13.50;;
53843;SDS011;39744;53.314;5.710;2022-09-09T07:40:37;31.13;;;13.45;;
53843;SDS011;39744;53.314;5.710;2022-09-09T07:43:04;49.83;;;16.80;;
53843;SDS011;39744;53.314;5.710;2022-09-09T07:45:30;26.70;;;12.80;;
53843;SDS011;39744;53.314;5.710;2022-09-09T07:47:58;26.98;;;12.65;;
53843;SDS011;39744;53.314;5.710;2022-09-09T07:50:24;27.48;;;12.20;;
53843;SDS011;39744;53.314;5.710;2022-09-09T07:52:51;27.02;;;12.10;;
53843;SDS011;39744;53.314;5.710;2022-09-09T07:55:18;22.33;;;11.27;;
53843;SDS011;39744;53.314;5.710;2022-09-09T07:57:45;24.90;;;10.90;;
53843;SDS011;39744;53.314;5.710;2022-09-09T08:00:11;24.75;;;10.52;;
53843;SDS011;39744;53.314;5.710;2022-09-09T08:02:37;25.25;;;11.07;;
53843;SDS011;39744;53.314;5.710;2022-09-09T08:05:03;22.40;;;10.65;;
53843;SDS011;39744;53.314;5.710;2022-09-09T08:07:31;22.75;;;10.48;;
53843;SDS011;39744;53.314;5.710;2022-09-09T08:09:57;27.75;;;11.70;;
53843;SDS011;39744;53.314;5.710;2022-09-09T08:12:23;23.20;;;10.23;;
53843;SDS011;39744;53.314;5.710;2022-09-09T08:14:49;26.15;;;10.85;;
53843;SDS011;39744;53.314;5.710;2022-09-09T08:17:16;25.30;;;10.50;;
53843;SDS011;39744;53.314;5.710;2022-09-09T08:19:42;19.33;;;9.25;;
53843;SDS011;39744;53.314;5.710;2022-09-09T08:22:09;23.42;;;10.45;;
53843;SDS011;39744;53.314;5.710;2022-09-09T08:24:35;17.55;;;9.52;;
53843;SDS011;39744;53.314;5.710;2022-09-09T08:27:01;18.95;;;9.52;;
53843;SDS011;39744;53.314;5.710;2022-09-09T08:29:27;31.33;;;11.25;;
53843;SDS011;39744;53.314;5.710;2022-09-09T08:31:54;30.95;;;10.88;;
53843;SDS011;39744;53.314;5.710;2022-09-09T08:34:22;25.85;;;10.65;;
53843;SDS011;39744;53.314;5.710;2022-09-09T08:36:48;26.58;;;11.02;;
53843;SDS011;39744;53.314;5.710;2022-09-09T08:39:15;26.23;;;10.88;;
53843;SDS011;39744;53.314;5.710;2022-09-09T08:52:59;18.80;;;9.75;;
53843;SDS011;39744;53.314;5.710;2022-09-09T09:00:42;18.48;;;10.13;;
53843;SDS011;39744;53.314;5.710;2022-09-09T09:03:23;24.33;;;11.38;;
53843;SDS011;39744;53.314;5.710;2022-09-09T09:08:40;21.10;;;11.15;;
53843;SDS011;39744;53.314;5.710;2022-09-09T09:11:08;20.00;;;9.88;;
53843;SDS011;39744;53.314;5.710;2022-09-09T09:13:43;21.13;;;8.82;;
53843;SDS011;39744;53.314;5.710;2022-09-09T09:19:03;20.52;;;9.65;;
53843;SDS011;39744;53.314;5.710;2022-09-09T09:21:34;22.05;;;10.02;;
53843;SDS011;39744;53.314;5.710;2022-09-09T09:24:02;18.27;;;10.30;;
53843;SDS011;39744;53.314;5.710;2022-09-09T09:26:31;19.17;;;9.35;;
53843;SDS011;39744;53.314;5.710;2022-09-09T09:28:58;23.98;;;9.30;;
53843;SDS011;39744;53.314;5.710;2022-09-09T09:31:25;20.88;;;9.43;;
53843;SDS011;39744;53.314;5.710;2022-09-09T09:33:55;24.05;;;9.93;;
53843;SDS011;39744;53.314;5.710;2022-09-09T09:36:48;14.57;;;8.50;;
53843;SDS011;39744;53.314;5.710;2022-09-09T09:39:22;16.27;;;8.85;;
53843;SDS011;39744;53.314;5.710;2022-09-09T09:41:48;18.75;;;8.55;;
53843;SDS011;39744;53.314;5.710;2022-09-09T09:44:25;17.17;;;9.98;;
53843;SDS011;39744;53.314;5.710;2022-09-09T09:46:51;18.40;;;9.68;;
53843;SDS011;39744;53.314;5.710;2022-09-09T09:49:18;15.95;;;8.07;;
53843;SDS011;39744;53.314;5.710;2022-09-09T09:51:44;15.43;;;7.43;;
53843;SDS011;39744;53.314;5.710;2022-09-09T09:54:15;16.88;;;7.20;;
53843;SDS011;39744;53.314;5.710;2022-09-09T09:56:46;15.27;;;7.85;;
53843;SDS011;39744;53.314;5.710;2022-09-09T09:59:23;14.45;;;6.72;;
53843;SDS011;39744;53.314;5.710;2022-09-09T10:01:49;15.02;;;7.72;;
53843;SDS011;39744;53.314;5.710;2022-09-09T10:04:17;13.05;;;7.13;;
53843;SDS011;39744;53.314;5.710;2022-09-09T10:06:45;11.43;;;6.53;;
53843;SDS011;39744;53.314;5.710;2022-09-09T10:09:28;14.40;;;6.38;;
53843;SDS011;39744;53.314;5.710;2022-09-09T10:14:46;12.98;;;5.00;;
53843;SDS011;39744;53.314;5.710;2022-09-09T10:19:41;11.10;;;5.45;;
53843;SDS011;39744;53.314;5.710;2022-09-09T10:22:26;10.55;;;5.20;;
53843;SDS011;39744;53.314;5.710;2022-09-09T10:25:10;12.85;;;5.20;;
53843;SDS011;39744;53.314;5.710;2022-09-09T10:33:13;14.18;;;5.07;;
53843;SDS011;39744;53.314;5.710;2022-09-09T10:36:26;8.35;;;4.07;;
53843;SDS011;39744;53.314;5.710;2022-09-09T10:38:44;13.95;;;4.63;;
53843;SDS011;39744;53.314;5.710;2022-09-09T10:41:24;11.57;;;4.90;;
53843;SDS011;39744;53.314;5.710;2022-09-09T10:46:58;9.73;;;4.70;;
53843;SDS011;39744;53.314;5.710;2022-09-09T10:52:08;9.15;;;4.45;;
53843;SDS011;39744;53.314;5.710;2022-09-09T10:54:56;12.38;;;4.28;;
53843;SDS011;39744;53.314;5.710;2022-09-09T10:57:31;11.77;;;3.70;;
53843;SDS011;39744;53.314;5.710;2022-09-09T11:00:03;14.48;;;4.25;;
53843;SDS011;39744;53.314;5.710;2022-09-09T11:02:31;13.23;;;4.60;;
53843;SDS011;39744;53.314;5.710;2022-09-09T11:04:59;11.73;;;4.28;;
53843;SDS011;39744;53.314;5.710;2022-09-09T11:07:40;10.75;;;3.92;;
53843;SDS011;39744;53.314;5.710;2022-09-09T11:10:45;7.53;;;3.63;;
53843;SDS011;39744;53.314;5.710;2022-09-09T11:13:09;11.02;;;3.83;;
53843;SDS011;39744;53.314;5.710;2022-09-09T11:15:39;7.68;;;3.40;;
53843;SDS011;39744;53.314;5.710;2022-09-09T11:18:09;8.80;;;3.30;;
53843;SDS011;39744;53.314;5.710;2022-09-09T11:20:37;10.07;;;3.40;;
53843;SDS011;39744;53.314;5.710;2022-09-09T11:23:11;13.73;;;3.88;;
53843;SDS011;39744;53.314;5.710;2022-09-09T11:25:43;10.48;;;3.33;;
53843;SDS011;39744;53.314;5.710;2022-09-09T11:28:26;8.38;;;2.92;;
53843;SDS011;39744;53.314;5.710;2022-09-09T11:31:07;9.57;;;3.10;;
53843;SDS011;39744;53.314;5.710;2022-09-09T11:41:05;10.82;;;3.22;;
53843;SDS011;39744;53.314;5.710;2022-09-09T11:43:38;12.60;;;3.10;;
53843;SDS011;39744;53.314;5.710;2022-09-09T11:46:06;9.40;;;2.63;;
53843;SDS011;39744;53.314;5.710;2022-09-09T11:51:09;7.75;;;2.67;;
53843;SDS011;39744;53.314;5.710;2022-09-09T11:53:46;10.07;;;2.88;;
53843;SDS011;39744;53.314;5.710;2022-09-09T11:56:22;9.23;;;2.83;;
53843;SDS011;39744;53.314;5.710;2022-09-09T11:58:59;9.05;;;3.00;;
53843;SDS011;39744;53.314;5.710;2022-09-09T12:04:14;13.80;;;3.17;;
53843;SDS011;39744;53.314;5.710;2022-09-09T12:06:42;9.25;;;2.53;;
53843;SDS011;39744;53.314;5.710;2022-09-09T12:09:28;8.30;;;2.67;;
53843;SDS011;39744;53.314;5.710;2022-09-09T12:12:06;8.75;;;2.53;;
53843;SDS011;39744;53.314;5.710;2022-09-09T12:14:43;8.38;;;2.67;;
53843;SDS011;39744;53.314;5.710;2022-09-09T12:17:10;9.10;;;2.65;;
53843;SDS011;39744;53.314;5.710;2022-09-09T12:19:43;5.85;;;2.20;;
53843;SDS011;39744;53.314;5.710;2022-09-09T12:22:19;5.63;;;2.00;;
53843;SDS011;39744;53.314;5.710;2022-09-09T12:25:03;7.82;;;2.80;;
53843;SDS011;39744;53.314;5.710;2022-09-09T12:27:36;8.80;;;2.50;;
53843;SDS011;39744;53.314;5.710;2022-09-09T12:30:10;9.50;;;2.63;;
53843;SDS011;39744;53.314;5.710;2022-09-09T12:32:37;9.88;;;2.47;;
53843;SDS011;39744;53.314;5.710;2022-09-09T12:35:09;8.80;;;2.83;;
53843;SDS011;39744;53.314;5.710;2022-09-09T12:37:37;6.05;;;2.30;;
53843;SDS011;39744;53.314;5.710;2022-09-09T12:40:04;9.65;;;2.65;;
53843;SDS011;39744;53.314;5.710;2022-09-09T12:42:31;9.63;;;2.72;;
53843;SDS011;39744;53.314;5.710;2022-09-09T12:44:59;12.75;;;2.83;;
53843;SDS011;39744;53.314;5.710;2022-09-09T12:47:27;9.82;;;3.30;;
53843;SDS011;39744;53.314;5.710;2022-09-09T12:49:55;10.32;;;3.38;;
53843;SDS011;39744;53.314;5.710;2022-09-09T12:52:35;12.88;;;4.00;;
53843;SDS011;39744;53.314;5.710;2022-09-09T12:55:04;8.03;;;3.30;;
53843;SDS011;39744;53.314;5.710;2022-09-09T12:57:33;9.57;;;2.83;;
53843;SDS011;39744;53.314;5.710;2022-09-09T13:00:04;9.68;;;3.35;;
53843;SDS011;39744;53.314;5.710;2022-09-09T13:02:31;8.45;;;3.15;;
53843;SDS011;39744;53.314;5.710;2022-09-09T13:05:05;7.60;;;2.50;;
53843;SDS011;39744;53.314;5.710;2022-09-09T13:07:32;9.27;;;2.75;;
53843;SDS011;39744;53.314;5.710;2022-09-09T13:09:58;7.78;;;2.70;;
53843;SDS011;39744;53.314;5.710;2022-09-09T13:12:24;9.20;;;2.67;;
53843;SDS011;39744;53.314;5.710;2022-09-09T13:14:53;7.22;;;2.60;;
53843;SDS011;39744;53.314;5.710;2022-09-09T13:17:22;8.80;;;2.88;;
53843;SDS011;39744;53.314;5.710;2022-09-09T13:19:48;15.32;;;3.00;;
53843;SDS011;39744;53.314;5.710;2022-09-09T13:22:20;10.93;;;2.58;;
53843;SDS011;39744;53.314;5.710;2022-09-09T13:24:46;7.80;;;2.55;;
53843;SDS011;39744;53.314;5.710;2022-09-09T13:29:59;13.80;;;2.60;;
53843;SDS011;39744;53.314;5.710;2022-09-09T13:32:26;9.18;;;2.33;;
53843;SDS011;39744;53.314;5.710;2022-09-09T13:34:59;9.25;;;2.70;;
53843;SDS011;39744;53.314;5.710;2022-09-09T13:37:36;6.28;;;2.33;;
53843;SDS011;39744;53.314;5.710;2022-09-09T13:40:03;9.20;;;2.60;;
53843;SDS011;39744;53.314;5.710;2022-09-09T13:42:31;8.82;;;2.40;;
53843;SDS011;39744;53.314;5.710;2022-09-09T13:45:00;7.75;;;2.50;;
53843;SDS011;39744;53.314;5.710;2022-09-09T13:47:36;9.63;;;2.22;;
53843;SDS011;39744;53.314;5.710;2022-09-09T13:52:47;7.35;;;3.10;;
53843;SDS011;39744;53.314;5.710;2022-09-09T13:55:15;10.55;;;2.88;;
53843;SDS011;39744;53.314;5.710;2022-09-09T13:57:49;8.25;;;2.85;;
53843;SDS011;39744;53.314;5.710;2022-09-09T14:00:16;11.38;;;3.00;;
53843;SDS011;39744;53.314;5.710;2022-09-09T14:02:42;8.48;;;2.75;;
53843;SDS011;39744;53.314;5.710;2022-09-09T14:05:09;4.55;;;2.30;;
53843;SDS011;39744;53.314;5.710;2022-09-09T14:07:36;7.85;;;2.70;;
53843;SDS011;39744;53.314;5.710;2022-09-09T14:10:04;7.32;;;2.55;;
53843;SDS011;39744;53.314;5.710;2022-09-09T14:12:30;6.10;;;2.42;;
53843;SDS011;39744;53.314;5.710;2022-09-09T14:14:56;7.00;;;2.00;;
53843;SDS011;39744;53.314;5.710;2022-09-09T14:17:22;7.18;;;2.55;;
53843;SDS011;39744;53.314;5.710;2022-09-09T14:19:50;4.47;;;1.73;;
53843;SDS011;39744;53.314;5.710;2022-09-09T14:22:16;5.43;;;1.30;;
53843;SDS011;39744;53.314;5.710;2022-09-09T14:24:42;3.58;;;1.50;;
53843;SDS011;39744;53.314;5.710;2022-09-09T14:27:08;6.53;;;1.90;;
53843;SDS011;39744;53.314;5.710;2022-09-09T14:29:35;5.80;;;2.92;;
53843;SDS011;39744;53.314;5.710;2022-09-09T14:32:01;5.78;;;2.88;;
53843;SDS011;39744;53.314;5.710;2022-09-09T14:34:27;11.32;;;3.50;;
53843;SDS011;39744;53.314;5.710;2022-09-09T14:36:53;9.05;;;3.78;;
53843;SDS011;39744;53.314;5.710;2022-09-09T14:39:20;8.32;;;3.50;;
53843;SDS011;39744;53.314;5.710;2022-09-09T14:41:46;6.78;;;2.33;;
53843;SDS011;39744;53.314;5.710;2022-09-09T14:44:12;5.18;;;2.63;;
53843;SDS011;39744;53.314;5.710;2022-09-09T14:46:38;8.60;;;2.42;;
53843;SDS011;39744;53.314;5.710;2022-09-09T14:49:04;5.93;;;2.25;;
53843;SDS011;39744;53.314;5.710;2022-09-09T14:51:30;6.03;;;1.90;;
53843;SDS011;39744;53.314;5.710;2022-09-09T14:53:56;7.50;;;2.00;;
53843;SDS011;39744;53.314;5.710;2022-09-09T14:56:24;5.65;;;1.90;;
53843;SDS011;39744;53.314;5.710;2022-09-09T14:58:52;7.15;;;2.15;;
53843;SDS011;39744;53.314;5.710;2022-09-09T15:01:19;5.95;;;1.70;;
53843;SDS011;39744;53.314;5.710;2022-09-09T15:03:52;6.38;;;2.20;;
53843;SDS011;39744;53.314;5.710;2022-09-09T15:06:18;4.30;;;1.75;;
53843;SDS011;39744;53.314;5.710;2022-09-09T15:08:45;7.38;;;2.10;;
53843;SDS011;39744;53.314;5.710;2022-09-09T15:11:12;6.38;;;1.90;;
53843;SDS011;39744;53.314;5.710;2022-09-09T15:13:38;5.13;;;2.22;;
53843;SDS011;39744;53.314;5.710;2022-09-09T15:16:05;5.00;;;2.05;;
53843;SDS011;39744;53.314;5.710;2022-09-09T15:18:32;4.28;;;2.28;;
53843;SDS011;39744;53.314;5.710;2022-09-09T15:21:00;6.22;;;2.40;;
53843;SDS011;39744;53.314;5.710;2022-09-09T15:23:28;14.38;;;2.90;;
53843;SDS011;39744;53.314;5.710;2022-09-09T15:25:55;6.03;;;2.97;;
53843;SDS011;39744;53.314;5.710;2022-09-09T15:28:21;5.25;;;2.80;;
53843;SDS011;39744;53.314;5.710;2022-09-09T15:30:48;12.02;;;2.95;;
53843;SDS011;39744;53.314;5.710;2022-09-09T15:33:15;9.25;;;2.30;;
53843;SDS011;39744;53.314;5.710;2022-09-09T15:35:41;4.85;;;2.22;;
53843;SDS011;39744;53.314;5.710;2022-09-09T15:38:07;8.43;;;2.45;;
53843;SDS011;39744;53.314;5.710;2022-09-09T15:40:33;5.68;;;2.40;;
53843;SDS011;39744;53.314;5.710;2022-09-09T15:42:59;6.47;;;2.55;;
53843;SDS011;39744;53.314;5.710;2022-09-09T15:45:25;8.52;;;2.90;;
53843;SDS011;39744;53.314;5.710;2022-09-09T15:47:52;8.80;;;2.80;;
53843;SDS011;39744;53.314;5.710;2022-09-09T15:50:18;7.50;;;3.15;;
53843;SDS011;39744;53.314;5.710;2022-09-09T15:52:44;8.43;;;3.28;;
53843;SDS011;39744;53.314;5.710;2022-09-09T15:55:10;6.63;;;2.90;;
53843;SDS011;39744;53.314;5.710;2022-09-09T15:57:36;3.78;;;2.30;;
53843;SDS011;39744;53.314;5.710;2022-09-09T16:00:03;5.68;;;2.50;;
53843;SDS011;39744;53.314;5.710;2022-09-09T16:02:30;6.57;;;2.80;;
53843;SDS011;39744;53.314;5.710;2022-09-09T16:04:56;3.88;;;2.40;;
53843;SDS011;39744;53.314;5.710;2022-09-09T16:07:22;5.20;;;2.67;;
53843;SDS011;39744;53.314;5.710;2022-09-09T16:09:49;5.88;;;2.40;;
53843;SDS011;39744;53.314;5.710;2022-09-09T16:12:18;6.95;;;3.10;;
53843;SDS011;39744;53.314;5.710;2022-09-09T16:14:44;8.85;;;3.97;;
53843;SDS011;39744;53.314;5.710;2022-09-09T16:17:10;7.78;;;3.70;;
53843;SDS011;39744;53.314;5.710;2022-09-09T16:19:37;6.90;;;3.88;;
53843;SDS011;39744;53.314;5.710;2022-09-09T16:22:03;7.22;;;3.90;;